createdAt,value
2017-03-25T00:00:00.679Z,4.36
2017-03-25T00:01:00.692Z,4.4
2017-03-25T00:03:00.729Z,4.32
2017-03-25T00:04:00.745Z,4.29
2017-03-25T00:05:00.765Z,4.23
2017-03-25T00:06:00.823Z,4.29
2017-03-25T00:07:00.799Z,4.37
2017-03-25T00:08:00.816Z,4.44
2017-03-25T00:09:15.451Z,4.47
2017-03-25T00:10:00.853Z,4.51
2017-03-25T00:11:00.873Z,4.67
2017-03-25T00:12:00.599Z,4.59
2017-03-25T00:13:00.910Z,4.52
2017-03-25T00:14:00.926Z,4.48
2017-03-25T00:15:00.943Z,4.52
2017-03-25T00:16:00.961Z,4.44
2017-03-25T00:17:00.979Z,4.37
2017-03-25T00:19:01.014Z,4.42
2017-03-25T00:20:01.334Z,4.33
2017-03-25T00:21:01.053Z,4.27
2017-03-25T00:22:15.684Z,4.2
2017-03-25T00:23:01.088Z,4.23
2017-03-25T00:24:15.722Z,4.14
2017-03-25T00:25:01.127Z,4.2
2017-03-25T00:26:01.142Z,4.14
2017-03-25T00:27:01.158Z,4.12
2017-03-25T00:28:01.177Z,4.14
2017-03-25T00:29:01.194Z,4.15
2017-03-25T00:30:01.211Z,4.24
2017-03-25T00:31:01.230Z,4.3
2017-03-25T00:32:01.248Z,4.32
2017-03-25T00:33:01.266Z,4.24
2017-03-25T00:34:01.283Z,4.4
2017-03-25T00:35:01.302Z,4.22
2017-03-25T00:36:01.320Z,4.32
2017-03-25T00:37:01.337Z,4.26
2017-03-25T00:38:01.357Z,4.15
2017-03-25T00:39:01.377Z,4.18
2017-03-25T00:40:01.392Z,4.26
2017-03-25T00:41:01.107Z,4.24
2017-03-25T00:42:01.429Z,4.26
2017-03-25T00:43:01.469Z,4.2
2017-03-25T00:44:01.463Z,4.26
2017-03-25T00:45:01.478Z,4.23
2017-03-25T00:46:01.499Z,4.27
2017-03-25T00:47:16.138Z,4.3
2017-03-25T00:48:01.533Z,4.22
2017-03-25T00:50:01.569Z,4.23
2017-03-25T00:51:01.588Z,4.2
2017-03-25T00:52:01.611Z,4.32
2017-03-25T00:53:01.630Z,4.2
2017-03-25T00:54:01.639Z,4.23
2017-03-25T00:55:01.671Z,4.27
2017-03-25T00:56:16.291Z,4.32
2017-03-25T00:57:01.697Z,4.36
2017-03-25T00:58:01.709Z,4.27
2017-03-25T00:59:01.727Z,4.22
2017-03-25T01:00:01.745Z,4.33
2017-03-25T01:01:01.771Z,4.4
2017-03-25T01:02:01.783Z,4.34
2017-03-25T01:03:01.799Z,4.36
2017-03-25T01:04:01.816Z,4.22
2017-03-25T01:06:01.854Z,4.04
2017-03-25T01:07:01.869Z,4.06
2017-03-25T01:08:16.201Z,3.97
2017-03-25T01:09:01.904Z,4
2017-03-25T01:10:16.538Z,3.98
2017-03-25T01:11:01.940Z,4.04
2017-03-25T01:12:16.574Z,4.06
2017-03-25T01:13:01.975Z,4.18
2017-03-25T01:14:01.993Z,4.16
2017-03-25T01:15:02.011Z,4.24
2017-03-25T01:16:02.039Z,4.18
2017-03-25T01:17:02.045Z,4.14
2017-03-25T01:18:02.063Z,4.04
2017-03-25T01:19:02.081Z,4.12
2017-03-25T01:20:02.100Z,4
2017-03-25T01:21:02.125Z,3.91
2017-03-25T01:22:02.136Z,3.9
2017-03-25T01:23:16.769Z,3.86
2017-03-25T01:24:16.786Z,3.79
2017-03-25T01:25:16.801Z,3.79
2017-03-25T01:26:02.205Z,3.87
2017-03-25T01:27:02.222Z,3.78
2017-03-25T01:28:16.854Z,3.79
2017-03-25T01:29:02.256Z,3.94
2017-03-25T01:30:02.277Z,3.86
2017-03-25T01:31:02.291Z,3.97
2017-03-25T01:32:02.307Z,3.9
2017-03-25T01:33:02.326Z,3.93
2017-03-25T01:34:02.343Z,3.91
2017-03-25T01:35:02.371Z,4
2017-03-25T01:37:02.401Z,4.02
2017-03-25T01:38:02.415Z,3.9
2017-03-25T01:39:02.632Z,4.02
2017-03-25T01:40:02.450Z,4
2017-03-25T01:41:17.082Z,3.98
2017-03-25T01:42:02.489Z,3.97
2017-03-25T01:43:02.503Z,3.98
2017-03-25T01:44:17.137Z,4.02
2017-03-25T01:46:02.554Z,3.9
2017-03-25T01:47:02.570Z,3.91
2017-03-25T01:48:02.588Z,3.94
2017-03-25T01:49:02.609Z,3.88
2017-03-25T01:51:02.640Z,3.86
2017-03-25T01:52:02.662Z,3.91
2017-03-25T01:54:02.691Z,3.87
2017-03-25T01:55:02.709Z,3.9
2017-03-25T01:56:02.729Z,3.79
2017-03-25T01:57:02.749Z,3.88
2017-03-25T01:58:02.761Z,3.86
2017-03-25T01:59:17.397Z,3.9
2017-03-25T02:00:02.802Z,3.91
2017-03-25T02:01:02.816Z,3.91
2017-03-25T02:02:02.832Z,4.04
2017-03-25T02:03:02.849Z,4.02
2017-03-25T02:04:02.870Z,4
2017-03-25T02:05:02.883Z,4
2017-03-25T02:07:02.919Z,4.05
2017-03-25T02:08:02.936Z,4.06
2017-03-25T02:11:02.988Z,3.84
2017-03-25T02:12:03.007Z,3.72
2017-03-25T02:13:03.024Z,3.72
2017-03-25T02:14:03.041Z,3.83
2017-03-25T02:15:03.057Z,3.76
2017-03-25T02:16:03.081Z,3.62
2017-03-25T02:17:03.094Z,3.84
2017-03-25T02:18:03.111Z,3.76
2017-03-25T02:19:03.131Z,3.7
2017-03-25T02:20:03.147Z,3.87
2017-03-25T02:21:03.162Z,3.79
2017-03-25T02:22:03.197Z,3.84
2017-03-25T02:23:02.892Z,3.83
2017-03-25T02:24:03.213Z,3.75
2017-03-25T02:25:03.234Z,3.76
2017-03-25T02:26:03.252Z,3.78
2017-03-25T02:27:03.265Z,3.73
2017-03-25T02:28:03.325Z,3.7
2017-03-25T02:29:03.301Z,3.69
2017-03-25T02:30:03.322Z,3.73
2017-03-25T02:31:17.949Z,3.78
2017-03-25T02:32:03.051Z,3.73
2017-03-25T02:33:03.068Z,3.86
2017-03-25T02:34:03.386Z,3.84
2017-03-25T02:35:03.403Z,3.91
2017-03-25T02:36:03.428Z,3.83
2017-03-25T02:37:03.438Z,3.83
2017-03-25T02:38:03.455Z,3.84
2017-03-25T02:39:03.471Z,3.7
2017-03-25T02:41:03.507Z,3.86
2017-03-25T02:43:03.543Z,3.94
2017-03-25T02:44:03.559Z,3.96
2017-03-25T02:45:18.190Z,3.9
2017-03-25T02:46:03.592Z,3.8
2017-03-25T02:47:18.226Z,3.93
2017-03-25T02:49:03.645Z,4.05
2017-03-25T02:50:03.663Z,4.11
2017-03-25T02:51:03.682Z,4.12
2017-03-25T02:52:03.699Z,4.12
2017-03-25T02:53:03.719Z,4.06
2017-03-25T02:54:03.737Z,3.93
2017-03-25T02:55:03.752Z,3.8
2017-03-25T02:57:03.785Z,3.8
2017-03-25T02:58:03.806Z,3.87
2017-03-25T02:59:03.821Z,3.88
2017-03-25T03:00:03.838Z,4
2017-03-25T03:01:03.852Z,4.12
2017-03-25T03:02:03.873Z,3.94
2017-03-25T03:03:18.198Z,3.98
2017-03-25T03:04:03.906Z,4.06
2017-03-25T03:05:03.929Z,3.98
2017-03-25T03:06:03.942Z,3.96
2017-03-25T03:07:03.954Z,4.02
2017-03-25T03:08:03.980Z,3.97
2017-03-25T03:09:03.999Z,4.05
2017-03-25T03:10:04.009Z,3.84
2017-03-25T03:11:04.024Z,4
2017-03-25T03:12:04.045Z,4
2017-03-25T03:13:04.061Z,4.04
2017-03-25T03:14:04.079Z,3.98
2017-03-25T03:15:04.098Z,4
2017-03-25T03:16:18.724Z,4.05
2017-03-25T03:17:04.130Z,4.04
2017-03-25T03:18:04.152Z,4.11
2017-03-25T03:19:18.779Z,4.18
2017-03-25T03:20:04.184Z,4.16
2017-03-25T03:21:04.196Z,4.11
2017-03-25T03:22:04.216Z,4.11
2017-03-25T03:23:04.228Z,4.16
2017-03-25T03:24:04.251Z,4.12
2017-03-25T03:25:04.264Z,4.14
2017-03-25T03:27:04.301Z,4
2017-03-25T03:28:04.320Z,4.15
2017-03-25T03:29:04.337Z,4.2
2017-03-25T03:30:04.354Z,4.06
2017-03-25T03:31:04.368Z,4.05
2017-03-25T03:32:19.001Z,4.16
2017-03-25T03:33:04.403Z,4.04
2017-03-25T03:34:19.036Z,4.14
2017-03-25T03:35:04.136Z,4.16
2017-03-25T03:36:04.152Z,4.11
2017-03-25T03:37:04.170Z,4.11
2017-03-25T03:38:04.496Z,4.23
2017-03-25T03:41:04.541Z,4.16
2017-03-25T03:42:04.565Z,4.15
2017-03-25T03:43:04.578Z,4.11
2017-03-25T03:44:04.594Z,4.04
2017-03-25T03:45:04.613Z,4.16
2017-03-25T03:46:04.332Z,4.14
2017-03-25T03:47:04.646Z,4.14
2017-03-25T03:48:04.661Z,4.22
2017-03-25T03:49:04.680Z,4.24
2017-03-25T03:50:04.700Z,4.4
2017-03-25T03:51:04.711Z,4.32
2017-03-25T03:52:04.730Z,4.36
2017-03-25T03:53:04.766Z,4.4
2017-03-25T03:54:04.767Z,4.34
2017-03-25T03:55:04.784Z,4.37
2017-03-25T03:57:04.819Z,4.4
2017-03-25T03:58:04.844Z,4.33
2017-03-25T03:59:04.849Z,4.41
2017-03-25T04:00:04.869Z,4.36
2017-03-25T04:01:19.504Z,4.4
2017-03-25T04:02:04.906Z,4.4
2017-03-25T04:03:04.928Z,4.37
2017-03-25T04:04:04.637Z,4.41
2017-03-25T04:05:04.651Z,4.34
2017-03-25T04:06:19.588Z,4.34
2017-03-25T04:07:04.996Z,4.23
2017-03-25T04:08:05.008Z,4.3
2017-03-25T04:09:05.021Z,4.24
2017-03-25T04:10:05.037Z,4.23
2017-03-25T04:11:05.056Z,4.34
2017-03-25T04:12:05.076Z,4.26
2017-03-25T04:13:05.092Z,4.24
2017-03-25T04:15:05.136Z,4.12
2017-03-25T04:16:05.195Z,4.08
2017-03-25T04:17:05.169Z,4.09
2017-03-25T04:18:05.478Z,4.06
2017-03-25T04:19:05.199Z,4.08
2017-03-25T04:20:19.826Z,4.26
2017-03-25T04:21:05.231Z,4.22
2017-03-25T04:22:19.862Z,4.24
2017-03-25T04:23:05.270Z,4.22
2017-03-25T04:24:05.283Z,4.15
2017-03-25T04:25:05.299Z,4.09
2017-03-25T04:26:05.314Z,4.08
2017-03-25T04:27:05.332Z,4.22
2017-03-25T04:28:05.349Z,4.18
2017-03-25T04:29:05.369Z,4.14
2017-03-25T04:30:05.080Z,4.09
2017-03-25T04:31:05.400Z,4.2
2017-03-25T04:33:05.440Z,4.22
2017-03-25T04:34:05.455Z,4.24
2017-03-25T04:35:05.619Z,4.24
2017-03-25T04:36:05.489Z,4.22
2017-03-25T04:37:05.202Z,4.11
2017-03-25T04:38:20.138Z,4.23
2017-03-25T04:39:05.539Z,4.16
2017-03-25T04:40:05.252Z,4.18
2017-03-25T04:41:05.574Z,4.27
2017-03-25T04:42:05.590Z,4.24
2017-03-25T04:43:05.609Z,4.34
2017-03-25T04:44:05.630Z,4.42
2017-03-25T04:46:05.662Z,4.3
2017-03-25T04:47:05.679Z,4.27
2017-03-25T04:48:05.695Z,4.22
2017-03-25T04:49:05.710Z,4.36
2017-03-25T04:50:20.342Z,4.34
2017-03-25T04:51:05.803Z,4.34
2017-03-25T04:52:05.769Z,4.34
2017-03-25T04:53:05.782Z,4.32
2017-03-25T04:54:20.413Z,4.33
2017-03-25T04:55:05.813Z,4.34
2017-03-25T04:56:05.849Z,4.33
2017-03-25T04:57:05.852Z,4.36
2017-03-25T04:58:05.865Z,4.36
2017-03-25T04:59:05.884Z,4.36
2017-03-25T05:00:05.906Z,4.42
2017-03-25T05:01:05.919Z,4.47
2017-03-25T05:02:05.935Z,4.42
2017-03-25T05:03:20.573Z,4.45
2017-03-25T05:05:06.027Z,4.5
2017-03-25T05:06:20.618Z,4.47
2017-03-25T05:07:05.720Z,4.55
2017-03-25T05:08:06.040Z,4.5
2017-03-25T05:09:20.673Z,4.5
2017-03-25T05:10:05.770Z,4.47
2017-03-25T05:11:06.091Z,4.59
2017-03-25T05:12:06.111Z,4.69
2017-03-25T05:13:06.126Z,4.69
2017-03-25T05:14:06.143Z,4.6
2017-03-25T05:15:06.157Z,4.67
2017-03-25T05:16:06.178Z,4.69
2017-03-25T05:17:06.194Z,4.67
2017-03-25T05:18:06.213Z,4.7
2017-03-25T05:19:06.229Z,4.7
2017-03-25T05:20:20.860Z,4.84
2017-03-25T05:21:20.877Z,4.69
2017-03-25T05:22:06.278Z,4.82
2017-03-25T05:23:06.301Z,4.8
2017-03-25T05:24:06.316Z,4.89
2017-03-25T05:25:06.333Z,4.97
2017-03-25T05:26:06.365Z,5.06
2017-03-25T05:27:06.073Z,5.09
2017-03-25T05:28:06.385Z,5.02
2017-03-25T05:29:06.402Z,5.04
2017-03-25T05:30:06.419Z,5.18
2017-03-25T05:31:06.441Z,5.17
2017-03-25T05:33:06.472Z,5.15
2017-03-25T05:34:06.488Z,5.2
2017-03-25T05:35:06.513Z,5.2
2017-03-25T05:36:21.139Z,5.3
2017-03-25T05:37:21.155Z,5.35
2017-03-25T05:38:06.558Z,5.38
2017-03-25T05:39:06.627Z,5.43
2017-03-25T05:40:06.591Z,5.46
2017-03-25T05:41:21.229Z,5.45
2017-03-25T05:42:06.635Z,5.39
2017-03-25T05:43:06.646Z,5.4
2017-03-25T05:44:06.662Z,5.49
2017-03-25T05:45:06.696Z,5.45
2017-03-25T05:46:06.701Z,5.57
2017-03-25T05:47:06.715Z,5.42
2017-03-25T05:49:06.751Z,5.48
2017-03-25T05:50:06.768Z,5.54
2017-03-25T05:51:06.785Z,5.53
2017-03-25T05:52:06.800Z,5.53
2017-03-25T05:53:06.822Z,5.67
2017-03-25T05:54:06.838Z,5.63
2017-03-25T05:55:06.855Z,5.72
2017-03-25T05:56:06.876Z,5.72
2017-03-25T05:57:21.506Z,5.68
2017-03-25T05:58:06.910Z,5.74
2017-03-25T05:59:06.927Z,5.74
2017-03-25T06:00:06.947Z,5.78
2017-03-25T06:01:06.960Z,5.83
2017-03-25T06:02:06.979Z,5.86
2017-03-25T06:03:06.997Z,5.85
2017-03-25T06:04:07.017Z,5.82
2017-03-25T06:05:07.033Z,5.86
2017-03-25T06:06:07.052Z,5.99
2017-03-25T06:07:07.069Z,5.97
2017-03-25T06:08:21.703Z,5.96
2017-03-25T06:09:07.119Z,6.04
2017-03-25T06:10:07.122Z,6.12
2017-03-25T06:11:07.138Z,6.25
2017-03-25T06:12:07.163Z,6.14
2017-03-25T06:13:21.797Z,6.21
2017-03-25T06:14:07.198Z,6.3
2017-03-25T06:15:07.214Z,6.3
2017-03-25T06:16:07.232Z,6.38
2017-03-25T06:17:07.252Z,6.46
2017-03-25T06:18:07.265Z,6.51
2017-03-25T06:19:07.287Z,6.55
2017-03-25T06:21:07.323Z,6.74
2017-03-25T06:22:07.340Z,6.74
2017-03-25T06:23:07.358Z,6.79
2017-03-25T06:24:07.376Z,6.73
2017-03-25T06:25:07.394Z,6.74
2017-03-25T06:26:07.417Z,6.79
2017-03-25T06:27:07.435Z,6.85
2017-03-25T06:28:07.452Z,6.92
2017-03-25T06:29:22.083Z,7.03
2017-03-25T06:30:07.485Z,6.97
2017-03-25T06:31:07.509Z,7.06
2017-03-25T06:32:07.527Z,7.13
2017-03-25T06:33:07.595Z,7.27
2017-03-25T06:34:07.562Z,7.28
2017-03-25T06:35:07.586Z,7.39
2017-03-25T06:36:07.600Z,7.43
2017-03-25T06:38:07.641Z,7.53
2017-03-25T06:39:22.274Z,7.63
2017-03-25T06:40:07.683Z,7.6
2017-03-25T06:41:22.310Z,7.68
2017-03-25T06:42:07.719Z,7.6
2017-03-25T06:43:07.738Z,7.67
2017-03-25T06:44:22.372Z,7.68
2017-03-25T06:45:07.774Z,7.69
2017-03-25T06:46:07.795Z,7.75
2017-03-25T06:47:07.817Z,7.86
2017-03-25T06:48:07.836Z,7.87
2017-03-25T06:49:07.856Z,7.82
2017-03-25T06:50:07.872Z,7.86
2017-03-25T06:51:07.901Z,7.95
2017-03-25T06:52:07.914Z,7.86
2017-03-25T06:53:07.936Z,7.89
2017-03-25T06:54:07.962Z,7.87
2017-03-25T06:55:07.972Z,7.89
2017-03-25T06:56:08.048Z,8.04
2017-03-25T06:57:08.015Z,7.97
2017-03-25T06:58:08.033Z,8.1
2017-03-25T06:59:08.066Z,8.08
2017-03-25T07:00:07.790Z,8.26
2017-03-25T07:01:08.090Z,8.23
2017-03-25T07:02:08.113Z,8.29
2017-03-25T07:03:08.437Z,8.33
2017-03-25T07:04:08.155Z,8.37
2017-03-25T07:05:08.173Z,8.33
2017-03-25T07:07:08.216Z,8.41
2017-03-25T07:09:22.871Z,8.45
2017-03-25T07:10:08.272Z,8.45
2017-03-25T07:11:08.299Z,8.53
2017-03-25T07:12:08.315Z,8.66
2017-03-25T07:13:22.947Z,8.48
2017-03-25T07:14:08.355Z,8.65
2017-03-25T07:15:08.068Z,8.68
2017-03-25T07:16:23.009Z,8.91
2017-03-25T07:17:08.415Z,8.95
2017-03-25T07:18:08.437Z,8.95
2017-03-25T07:19:08.159Z,9.04
2017-03-25T07:20:08.475Z,9.28
2017-03-25T07:21:08.497Z,9.4
2017-03-25T07:22:08.518Z,9.4
2017-03-25T07:23:08.548Z,9.35
2017-03-25T07:24:08.564Z,9.61
2017-03-25T07:25:08.583Z,9.79
2017-03-25T07:26:08.604Z,9.94
2017-03-25T07:27:22.936Z,10.14
2017-03-25T07:28:08.650Z,10.17
2017-03-25T07:29:08.676Z,10.2
2017-03-25T07:30:08.385Z,10.42
2017-03-25T07:31:08.711Z,10.51
2017-03-25T07:32:23.350Z,10.47
2017-03-25T07:33:08.757Z,10.71
2017-03-25T07:34:08.475Z,10.48
2017-03-25T07:35:08.801Z,10.48
2017-03-25T07:36:08.822Z,10.55
2017-03-25T07:37:08.846Z,10.45
2017-03-25T07:38:08.866Z,10.4
2017-03-25T07:39:08.892Z,10.41
2017-03-25T07:40:08.909Z,10.45
2017-03-25T07:41:08.935Z,10.48
2017-03-25T07:42:08.957Z,10.36
2017-03-25T07:43:23.596Z,10.26
2017-03-25T07:44:09.003Z,10.2
2017-03-25T07:45:08.721Z,10.23
2017-03-25T07:46:08.740Z,10.15
2017-03-25T07:47:09.089Z,10.22
2017-03-25T07:48:23.707Z,10.09
2017-03-25T07:49:09.111Z,10.17
2017-03-25T07:50:09.133Z,10.23
2017-03-25T07:51:09.155Z,10.25
2017-03-25T07:52:09.175Z,10.2
2017-03-25T07:53:09.203Z,10.25
2017-03-25T07:54:09.235Z,10.08
2017-03-25T07:55:09.244Z,10.27
2017-03-25T07:56:09.268Z,10.34
2017-03-25T07:57:09.288Z,10.3
2017-03-25T07:58:23.927Z,10.18
2017-03-25T07:59:09.331Z,10.26
2017-03-25T08:00:09.355Z,10.27
2017-03-25T08:01:23.989Z,10.36
2017-03-25T08:02:09.400Z,10.47
2017-03-25T08:03:09.420Z,10.48
2017-03-25T08:04:24.058Z,10.63
2017-03-25T08:05:09.463Z,10.63
2017-03-25T08:06:09.484Z,10.76
2017-03-25T08:07:09.509Z,10.88
2017-03-25T08:08:09.526Z,10.89
2017-03-25T08:09:09.550Z,11.04
2017-03-25T08:10:09.569Z,11.09
2017-03-25T08:11:09.594Z,10.94
2017-03-25T08:12:09.615Z,10.99
2017-03-25T08:13:09.638Z,10.92
2017-03-25T08:14:09.659Z,10.88
2017-03-25T08:15:09.680Z,11.1
2017-03-25T08:16:24.320Z,11.21
2017-03-25T08:17:09.729Z,11.32
2017-03-25T08:18:09.748Z,11.35
2017-03-25T08:19:24.391Z,11.51
2017-03-25T08:20:09.794Z,11.49
2017-03-25T08:21:09.853Z,11.42
2017-03-25T08:22:09.837Z,11.35
2017-03-25T08:23:09.866Z,11.54
2017-03-25T08:25:09.904Z,11.21
2017-03-25T08:26:09.927Z,11.27
2017-03-25T08:28:09.974Z,11.25
2017-03-25T08:29:24.613Z,11.47
2017-03-25T08:30:10.020Z,11.47
2017-03-25T08:31:10.042Z,11.61
2017-03-25T08:32:10.060Z,11.47
2017-03-25T08:33:10.088Z,11.43
2017-03-25T08:34:10.106Z,11.37
2017-03-25T08:35:10.136Z,11.22
2017-03-25T08:36:09.846Z,11.29
2017-03-25T08:37:10.172Z,11.43
2017-03-25T08:38:10.194Z,11.25
2017-03-25T08:39:10.221Z,11.17
2017-03-25T08:40:10.238Z,11.42
2017-03-25T08:42:10.289Z,11.25
2017-03-25T08:43:10.462Z,11.28
2017-03-25T08:44:10.493Z,11.42
2017-03-25T08:45:10.351Z,11.43
2017-03-25T08:46:10.372Z,11.57
2017-03-25T08:47:10.396Z,11.55
2017-03-25T08:48:10.417Z,11.61
2017-03-25T08:49:10.444Z,11.73
2017-03-25T08:50:10.159Z,11.94
2017-03-25T08:51:25.107Z,11.65
2017-03-25T08:52:10.506Z,11.72
2017-03-25T08:54:10.553Z,11.83
2017-03-25T08:55:10.571Z,11.91
2017-03-25T08:56:10.592Z,11.79
2017-03-25T08:57:10.623Z,11.94
2017-03-25T08:58:10.653Z,12.09
2017-03-25T08:59:10.668Z,12.13
2017-03-25T09:00:10.378Z,12.16
2017-03-25T09:02:10.725Z,12.41
2017-03-25T09:03:10.752Z,12.39
2017-03-25T09:04:10.470Z,12.29
2017-03-25T09:05:25.408Z,12.32
2017-03-25T09:06:10.817Z,12.35
2017-03-25T09:08:10.867Z,12.5
2017-03-25T09:09:10.882Z,12.64
2017-03-25T09:10:10.602Z,12.49
2017-03-25T09:11:10.926Z,12.16
2017-03-25T09:12:10.646Z,12.1
2017-03-25T09:13:10.978Z,12.02
2017-03-25T09:14:10.994Z,11.98
2017-03-25T09:15:11.020Z,11.99
2017-03-25T09:16:11.038Z,11.79
2017-03-25T09:17:11.065Z,11.95
2017-03-25T09:18:11.087Z,11.75
2017-03-25T09:19:11.114Z,11.73
2017-03-25T09:20:11.130Z,11.78
2017-03-25T09:21:11.153Z,11.78
2017-03-25T09:22:11.182Z,11.73
2017-03-25T09:23:25.816Z,11.72
2017-03-25T09:24:11.225Z,11.85
2017-03-25T09:25:11.245Z,11.95
2017-03-25T09:26:11.269Z,12.2
2017-03-25T09:27:11.298Z,12.35
2017-03-25T09:28:11.010Z,12.5
2017-03-25T09:29:11.335Z,12.65
2017-03-25T09:30:11.357Z,13.03
2017-03-25T09:31:11.380Z,13.01
2017-03-25T09:32:11.403Z,12.92
2017-03-25T09:33:11.430Z,13.03
2017-03-25T09:34:11.456Z,13.23
2017-03-25T09:35:11.522Z,12.71
2017-03-25T09:36:26.109Z,12.52
2017-03-25T09:37:11.521Z,12.45
2017-03-25T09:38:11.238Z,12.14
2017-03-25T09:39:26.181Z,12.27
2017-03-25T09:40:11.588Z,12.41
2017-03-25T09:41:11.610Z,12.59
2017-03-25T09:42:11.637Z,12.77
2017-03-25T09:43:11.658Z,13.05
2017-03-25T09:44:11.683Z,12.67
2017-03-25T09:45:11.705Z,12.59
2017-03-25T09:46:11.726Z,12.67
2017-03-25T09:47:11.753Z,12.71
2017-03-25T09:48:11.475Z,12.75
2017-03-25T09:49:26.417Z,12.78
2017-03-25T09:50:11.824Z,12.87
2017-03-25T09:51:11.548Z,13.01
2017-03-25T09:52:11.870Z,13.17
2017-03-25T09:53:11.894Z,13.29
2017-03-25T09:54:26.538Z,13.29
2017-03-25T09:55:11.942Z,13.41
2017-03-25T09:56:11.963Z,13.52
2017-03-25T09:57:11.689Z,13.6
2017-03-25T09:58:12.020Z,13.49
2017-03-25T09:59:12.041Z,13.6
2017-03-25T10:00:12.059Z,13.63
2017-03-25T10:02:11.806Z,13.6
2017-03-25T10:03:12.184Z,13.71
2017-03-25T10:04:12.159Z,13.91
2017-03-25T10:05:12.186Z,13.84
2017-03-25T10:06:11.901Z,13.97
2017-03-25T10:07:12.247Z,14.1
2017-03-25T10:08:12.256Z,14.1
2017-03-25T10:09:12.278Z,14.15
2017-03-25T10:10:12.303Z,13.97
2017-03-25T10:11:12.376Z,14.1
2017-03-25T10:12:12.045Z,14.45
2017-03-25T10:13:12.377Z,14.51
2017-03-25T10:14:12.399Z,14.36
2017-03-25T10:15:12.424Z,14.2
2017-03-25T10:16:12.450Z,13.81
2017-03-25T10:17:12.169Z,13.89
2017-03-25T10:18:12.197Z,14
2017-03-25T10:19:12.523Z,14
2017-03-25T10:20:12.545Z,13.92
2017-03-25T10:21:12.573Z,14
2017-03-25T10:22:12.593Z,13.64
2017-03-25T10:23:12.625Z,13.64
2017-03-25T10:24:12.647Z,13.62
2017-03-25T10:25:12.972Z,13.78
2017-03-25T10:26:27.323Z,13.73
2017-03-25T10:27:12.719Z,13.73
2017-03-25T10:28:12.751Z,13.66
2017-03-25T10:29:12.769Z,13.71
2017-03-25T10:30:12.790Z,13.92
2017-03-25T10:31:12.816Z,13.95
2017-03-25T10:32:12.843Z,13.89
2017-03-25T10:34:12.894Z,13.95
2017-03-25T10:36:12.938Z,14.21
2017-03-25T10:37:12.961Z,14.2
2017-03-25T10:38:12.687Z,14.29
2017-03-25T10:39:13.014Z,14.51
2017-03-25T10:40:12.788Z,14.28
2017-03-25T10:41:13.065Z,14.35
2017-03-25T10:42:27.704Z,14.28
2017-03-25T10:43:13.113Z,14.29
2017-03-25T10:44:12.834Z,14.07
2017-03-25T10:45:13.162Z,13.77
2017-03-25T10:46:12.921Z,13.91
2017-03-25T10:48:13.232Z,14.09
2017-03-25T10:50:13.383Z,13.97
2017-03-25T10:51:12.700Z,13.99
2017-03-25T10:52:13.330Z,14.02
2017-03-25T10:53:13.056Z,13.95
2017-03-25T10:54:27.995Z,13.95
2017-03-25T10:55:13.403Z,14.21
2017-03-25T10:56:13.429Z,14.33
2017-03-25T10:57:13.451Z,14.39
2017-03-25T10:58:28.092Z,14.21
2017-03-25T10:59:13.540Z,14.2
2017-03-25T11:00:13.523Z,14.2
2017-03-25T11:01:13.547Z,14.21
2017-03-25T11:02:13.573Z,14.22
2017-03-25T11:03:13.599Z,14.21
2017-03-25T11:05:13.654Z,14.62
2017-03-25T11:06:13.665Z,14.52
2017-03-25T11:08:13.716Z,14.6
2017-03-25T11:09:28.356Z,14.47
2017-03-25T11:10:28.383Z,14.39
2017-03-25T11:11:28.402Z,14.39
2017-03-25T11:12:13.815Z,14.35
2017-03-25T11:13:13.894Z,14.36
2017-03-25T11:14:28.477Z,14.32
2017-03-25T11:15:13.888Z,14.4
2017-03-25T11:16:13.913Z,13.95
2017-03-25T11:17:13.628Z,14.17
2017-03-25T11:18:13.654Z,14.22
2017-03-25T11:19:13.984Z,13.95
2017-03-25T11:20:14.004Z,13.92
2017-03-25T11:21:14.030Z,13.89
2017-03-25T11:22:14.052Z,13.85
2017-03-25T11:23:28.390Z,13.89
2017-03-25T11:24:28.716Z,13.73
2017-03-25T11:25:14.124Z,13.88
2017-03-25T11:26:14.145Z,13.91
2017-03-25T11:28:14.201Z,13.95
2017-03-25T11:29:28.837Z,13.95
2017-03-25T11:30:14.245Z,13.96
2017-03-25T11:31:14.265Z,14.15
2017-03-25T11:33:14.315Z,14.36
2017-03-25T11:34:14.341Z,14.28
2017-03-25T11:35:14.361Z,14.27
2017-03-25T11:36:14.086Z,14.15
2017-03-25T11:37:14.410Z,14.1
2017-03-25T11:38:14.430Z,14.17
2017-03-25T11:39:29.074Z,14.03
2017-03-25T11:40:14.477Z,13.88
2017-03-25T11:41:14.205Z,13.91
2017-03-25T11:42:14.526Z,13.89
2017-03-25T11:43:14.553Z,13.71
2017-03-25T11:44:14.578Z,13.89
2017-03-25T11:45:14.597Z,14.1
2017-03-25T11:46:14.620Z,14.15
2017-03-25T11:47:14.652Z,14.2
2017-03-25T11:48:14.672Z,14.24
2017-03-25T11:49:14.693Z,14.36
2017-03-25T11:50:14.716Z,14.43
2017-03-25T11:51:14.740Z,14.47
2017-03-25T11:53:14.790Z,14.17
2017-03-25T11:54:29.430Z,14.14
2017-03-25T11:55:29.453Z,13.96
2017-03-25T11:56:29.475Z,14.03
2017-03-25T11:57:29.497Z,13.96
2017-03-25T11:58:14.905Z,13.99
2017-03-25T11:59:14.929Z,13.92
2017-03-25T12:00:14.997Z,14.1
2017-03-25T12:01:29.591Z,14.14
2017-03-25T12:02:14.999Z,14.29
2017-03-25T12:04:15.048Z,13.73
2017-03-25T12:05:15.085Z,13.87
2017-03-25T12:06:15.097Z,14.03
2017-03-25T12:07:15.125Z,14.09
2017-03-25T12:08:14.844Z,14.12
2017-03-25T12:09:15.167Z,14.04
2017-03-25T12:10:15.189Z,14.12
2017-03-25T12:11:15.210Z,14.09
2017-03-25T12:12:15.234Z,14.14
2017-03-25T12:13:29.875Z,14.22
2017-03-25T12:14:15.287Z,14.18
2017-03-25T12:15:15.304Z,14.2
2017-03-25T12:16:15.332Z,14.04
2017-03-25T12:17:29.968Z,13.85
2017-03-25T12:18:15.376Z,13.82
2017-03-25T12:19:15.397Z,13.77
2017-03-25T12:20:15.425Z,13.91
2017-03-25T12:21:15.445Z,13.89
2017-03-25T12:22:15.467Z,14.02
2017-03-25T12:23:15.494Z,13.78
2017-03-25T12:24:15.516Z,13.75
2017-03-25T12:25:15.579Z,13.79
2017-03-25T12:26:15.560Z,13.88
2017-03-25T12:27:15.587Z,13.79
2017-03-25T12:28:15.613Z,13.89
2017-03-25T12:29:15.634Z,13.89
2017-03-25T12:30:15.675Z,13.64
2017-03-25T12:31:15.682Z,13.59
2017-03-25T12:32:15.704Z,13.67
2017-03-25T12:33:30.345Z,13.63
2017-03-25T12:34:15.749Z,13.63
2017-03-25T12:35:15.776Z,13.66
2017-03-25T12:36:15.794Z,13.67
2017-03-25T12:37:15.820Z,13.69
2017-03-25T12:38:15.844Z,13.75
2017-03-25T12:40:15.888Z,13.75
2017-03-25T12:41:15.913Z,13.63
2017-03-25T12:42:15.936Z,13.67
2017-03-25T12:43:15.959Z,13.64
2017-03-25T12:44:15.980Z,13.7
2017-03-25T12:45:15.701Z,13.92
2017-03-25T12:46:16.027Z,13.97
2017-03-25T12:47:16.051Z,14.06
2017-03-25T12:48:30.704Z,14.15
2017-03-25T12:49:30.716Z,14.25
2017-03-25T12:50:15.820Z,14.36
2017-03-25T12:52:16.166Z,14.25
2017-03-25T12:53:16.194Z,14.33
2017-03-25T12:54:16.217Z,14.43
2017-03-25T12:57:16.282Z,14.07
2017-03-25T12:58:16.311Z,14.06
2017-03-25T12:59:16.331Z,14.09
2017-03-25T13:00:16.357Z,14.17
2017-03-25T13:01:30.994Z,14.09
2017-03-25T13:02:31.019Z,14.09
2017-03-25T13:03:16.427Z,14.12
2017-03-25T13:04:31.067Z,14.14
2017-03-25T13:05:16.477Z,14.18
2017-03-25T13:06:16.498Z,14.1
2017-03-25T13:07:16.518Z,14.09
2017-03-25T13:08:16.547Z,14.18
2017-03-25T13:09:16.566Z,14.12
2017-03-25T13:10:16.590Z,14.14
2017-03-25T13:11:16.610Z,13.97
2017-03-25T13:12:16.642Z,14.03
2017-03-25T13:14:16.684Z,13.95
2017-03-25T13:15:16.712Z,13.84
2017-03-25T13:16:16.732Z,13.85
2017-03-25T13:17:31.368Z,13.92
2017-03-25T13:18:16.780Z,13.99
2017-03-25T13:19:16.801Z,14
2017-03-25T13:20:16.823Z,13.89
2017-03-25T13:21:16.852Z,14
2017-03-25T13:22:16.870Z,13.92
2017-03-25T13:23:16.894Z,13.71
2017-03-25T13:24:16.917Z,13.66
2017-03-25T13:25:16.938Z,13.6
2017-03-25T13:26:16.657Z,13.49
2017-03-25T13:27:16.987Z,13.52
2017-03-25T13:28:17.010Z,13.6
2017-03-25T13:30:31.674Z,13.69
2017-03-25T13:31:17.077Z,13.79
2017-03-25T13:32:17.099Z,13.79
2017-03-25T13:33:17.130Z,13.6
2017-03-25T13:34:16.846Z,13.55
2017-03-25T13:35:17.177Z,13.57
2017-03-25T13:36:31.809Z,13.49
2017-03-25T13:37:17.221Z,13.52
2017-03-25T13:38:17.241Z,13.71
2017-03-25T13:39:16.964Z,13.88
2017-03-25T13:41:17.308Z,13.7
2017-03-25T13:42:17.331Z,13.69
2017-03-25T13:43:17.055Z,13.6
2017-03-25T13:44:17.382Z,13.81
2017-03-25T13:45:17.404Z,13.66
2017-03-25T13:46:17.425Z,13.63
2017-03-25T13:47:17.452Z,13.51
2017-03-25T13:48:32.089Z,13.55
2017-03-25T13:49:17.498Z,13.63
2017-03-25T13:50:17.519Z,13.67
2017-03-25T13:51:17.539Z,13.77
2017-03-25T13:52:32.182Z,13.77
2017-03-25T13:53:17.593Z,13.92
2017-03-25T13:54:17.616Z,13.92
2017-03-25T13:55:17.633Z,13.77
2017-03-25T13:56:17.658Z,13.87
2017-03-25T13:57:17.682Z,13.73
2017-03-25T13:58:17.704Z,13.81
2017-03-25T13:59:17.731Z,13.77
2017-03-25T14:00:17.749Z,13.64
2017-03-25T14:01:17.773Z,13.77
2017-03-25T14:02:32.414Z,13.79
2017-03-25T14:03:32.437Z,13.77